sensor_id;sensor_type;location;lat;lon;timestamp;P1;durP1;ratioP1;P2;durP2;ratioP2
45836;SDS011;31548;51.420;-0.040;2022-12-07T00:01:37;8.10;;;3.58;;
45836;SDS011;31548;51.420;-0.040;2022-12-07T00:04:07;14.75;;;4.03;;
45836;SDS011;31548;51.420;-0.040;2022-12-07T00:06:38;11.32;;;2.83;;
45836;SDS011;31548;51.420;-0.040;2022-12-07T00:09:11;9.90;;;2.97;;
45836;SDS011;31548;51.420;-0.040;2022-12-07T00:11:42;12.35;;;3.85;;
45836;SDS011;31548;51.420;-0.040;2022-12-07T00:14:11;9.25;;;3.63;;
45836;SDS011;31548;51.420;-0.040;2022-12-07T00:16:41;12.15;;;2.85;;
45836;SDS011;31548;51.420;-0.040;2022-12-07T00:19:09;15.88;;;3.30;;
45836;SDS011;31548;51.420;-0.040;2022-12-07T00:21:38;7.88;;;3.47;;
45836;SDS011;31548;51.420;-0.040;2022-12-07T00:24:05;12.55;;;2.60;;
45836;SDS011;31548;51.420;-0.040;2022-12-07T00:26:33;7.05;;;2.72;;
45836;SDS011;31548;51.420;-0.040;2022-12-07T00:29:06;13.88;;;4.18;;
45836;SDS011;31548;51.420;-0.040;2022-12-07T00:31:38;13.93;;;2.13;;
45836;SDS011;31548;51.420;-0.040;2022-12-07T00:34:06;18.48;;;4.35;;
45836;SDS011;31548;51.420;-0.040;2022-12-07T00:36:37;10.48;;;3.28;;
45836;SDS011;31548;51.420;-0.040;2022-12-07T00:39:05;11.98;;;2.83;;
45836;SDS011;31548;51.420;-0.040;2022-12-07T00:41:32;9.00;;;3.20;;
45836;SDS011;31548;51.420;-0.040;2022-12-07T00:43:59;13.15;;;2.78;;
45836;SDS011;31548;51.420;-0.040;2022-12-07T00:46:26;14.02;;;3.40;;
45836;SDS011;31548;51.420;-0.040;2022-12-07T00:48:54;9.93;;;4.10;;
45836;SDS011;31548;51.420;-0.040;2022-12-07T00:51:24;18.73;;;3.75;;
45836;SDS011;31548;51.420;-0.040;2022-12-07T00:53:52;20.08;;;3.97;;
45836;SDS011;31548;51.420;-0.040;2022-12-07T00:56:23;13.65;;;3.85;;
45836;SDS011;31548;51.420;-0.040;2022-12-07T00:58:53;18.15;;;5.20;;
45836;SDS011;31548;51.420;-0.040;2022-12-07T01:01:23;14.50;;;4.50;;
45836;SDS011;31548;51.420;-0.040;2022-12-07T01:03:51;16.08;;;4.72;;
45836;SDS011;31548;51.420;-0.040;2022-12-07T01:06:19;20.90;;;6.50;;
45836;SDS011;31548;51.420;-0.040;2022-12-07T01:08:47;13.88;;;3.95;;
45836;SDS011;31548;51.420;-0.040;2022-12-07T01:11:16;13.73;;;5.07;;
45836;SDS011;31548;51.420;-0.040;2022-12-07T01:13:45;9.55;;;3.42;;
45836;SDS011;31548;51.420;-0.040;2022-12-07T01:16:13;12.25;;;5.18;;
45836;SDS011;31548;51.420;-0.040;2022-12-07T01:18:45;13.27;;;3.90;;
45836;SDS011;31548;51.420;-0.040;2022-12-07T01:21:15;13.65;;;4.15;;
45836;SDS011;31548;51.420;-0.040;2022-12-07T01:23:47;16.65;;;4.15;;
45836;SDS011;31548;51.420;-0.040;2022-12-07T01:26:17;11.48;;;4.38;;
45836;SDS011;31548;51.420;-0.040;2022-12-07T01:28:46;15.70;;;6.00;;
45836;SDS011;31548;51.420;-0.040;2022-12-07T01:31:18;19.25;;;6.90;;
45836;SDS011;31548;51.420;-0.040;2022-12-07T01:33:48;13.70;;;5.68;;
45836;SDS011;31548;51.420;-0.040;2022-12-07T01:36:19;9.90;;;4.85;;
45836;SDS011;31548;51.420;-0.040;2022-12-07T01:38:49;17.48;;;5.40;;
45836;SDS011;31548;51.420;-0.040;2022-12-07T01:41:20;14.73;;;6.32;;
45836;SDS011;31548;51.420;-0.040;2022-12-07T01:46:50;11.85;;;4.60;;
45836;SDS011;31548;51.420;-0.040;2022-12-07T01:54:44;14.10;;;4.30;;
45836;SDS011;31548;51.420;-0.040;2022-12-07T01:57:13;10.20;;;3.85;;
45836;SDS011;31548;51.420;-0.040;2022-12-07T01:59:41;12.80;;;3.47;;
45836;SDS011;31548;51.420;-0.040;2022-12-07T02:02:17;9.13;;;3.28;;
45836;SDS011;31548;51.420;-0.040;2022-12-07T02:04:50;7.13;;;3.03;;
45836;SDS011;31548;51.420;-0.040;2022-12-07T02:07:19;12.25;;;3.17;;
45836;SDS011;31548;51.420;-0.040;2022-12-07T02:09:48;13.82;;;4.22;;
45836;SDS011;31548;51.420;-0.040;2022-12-07T02:12:15;7.30;;;3.15;;
45836;SDS011;31548;51.420;-0.040;2022-12-07T02:14:43;8.40;;;3.03;;
45836;SDS011;31548;51.420;-0.040;2022-12-07T02:20:18;8.02;;;3.28;;
45836;SDS011;31548;51.420;-0.040;2022-12-07T02:23:04;8.80;;;2.78;;
45836;SDS011;31548;51.420;-0.040;2022-12-07T02:31:21;7.22;;;2.35;;
45836;SDS011;31548;51.420;-0.040;2022-12-07T02:33:53;4.90;;;2.42;;
45836;SDS011;31548;51.420;-0.040;2022-12-07T02:36:32;9.63;;;2.15;;
45836;SDS011;31548;51.420;-0.040;2022-12-07T02:39:08;8.80;;;2.65;;
45836;SDS011;31548;51.420;-0.040;2022-12-07T02:42:02;6.03;;;2.22;;
45836;SDS011;31548;51.420;-0.040;2022-12-07T02:44:36;6.70;;;2.03;;
45836;SDS011;31548;51.420;-0.040;2022-12-07T02:47:05;4.53;;;2.25;;
45836;SDS011;31548;51.420;-0.040;2022-12-07T02:49:35;9.52;;;3.33;;
45836;SDS011;31548;51.420;-0.040;2022-12-07T02:52:05;5.43;;;2.20;;
45836;SDS011;31548;51.420;-0.040;2022-12-07T02:54:32;8.60;;;3.35;;
45836;SDS011;31548;51.420;-0.040;2022-12-07T03:18:54;11.63;;;3.70;;
45836;SDS011;31548;51.420;-0.040;2022-12-07T03:21:32;7.47;;;3.50;;
45836;SDS011;31548;51.420;-0.040;2022-12-07T03:24:05;12.95;;;3.60;;
45836;SDS011;31548;51.420;-0.040;2022-12-07T03:26:40;11.88;;;4.80;;
45836;SDS011;31548;51.420;-0.040;2022-12-07T03:29:17;15.35;;;5.22;;
45836;SDS011;31548;51.420;-0.040;2022-12-07T03:32:13;12.73;;;4.00;;
45836;SDS011;31548;51.420;-0.040;2022-12-07T03:34:56;11.48;;;3.65;;
45836;SDS011;31548;51.420;-0.040;2022-12-07T03:37:34;13.10;;;5.10;;
45836;SDS011;31548;51.420;-0.040;2022-12-07T03:40:35;14.43;;;6.25;;
45836;SDS011;31548;51.420;-0.040;2022-12-07T03:43:07;17.92;;;4.82;;
45836;SDS011;31548;51.420;-0.040;2022-12-07T03:53:35;20.73;;;5.43;;
45836;SDS011;31548;51.420;-0.040;2022-12-07T03:56:11;13.55;;;5.53;;
45836;SDS011;31548;51.420;-0.040;2022-12-07T03:58:39;16.50;;;5.60;;
45836;SDS011;31548;51.420;-0.040;2022-12-07T04:01:08;12.95;;;5.18;;
45836;SDS011;31548;51.420;-0.040;2022-12-07T04:03:37;16.30;;;6.80;;
45836;SDS011;31548;51.420;-0.040;2022-12-07T04:06:04;13.27;;;4.90;;
45836;SDS011;31548;51.420;-0.040;2022-12-07T04:08:32;16.25;;;6.85;;
45836;SDS011;31548;51.420;-0.040;2022-12-07T04:10:59;12.82;;;5.68;;
45836;SDS011;31548;51.420;-0.040;2022-12-07T04:13:26;12.98;;;3.45;;
45836;SDS011;31548;51.420;-0.040;2022-12-07T04:15:53;14.50;;;3.72;;
45836;SDS011;31548;51.420;-0.040;2022-12-07T04:18:21;16.65;;;7.45;;
45836;SDS011;31548;51.420;-0.040;2022-12-07T04:20:48;13.52;;;5.05;;
45836;SDS011;31548;51.420;-0.040;2022-12-07T04:23:15;10.45;;;4.85;;
45836;SDS011;31548;51.420;-0.040;2022-12-07T04:25:42;16.65;;;6.57;;
45836;SDS011;31548;51.420;-0.040;2022-12-07T04:28:09;11.05;;;3.75;;
45836;SDS011;31548;51.420;-0.040;2022-12-07T04:30:37;12.60;;;4.47;;
45836;SDS011;31548;51.420;-0.040;2022-12-07T04:33:04;13.65;;;5.45;;
45836;SDS011;31548;51.420;-0.040;2022-12-07T04:35:31;12.50;;;4.40;;
45836;SDS011;31548;51.420;-0.040;2022-12-07T04:37:58;11.02;;;4.03;;
45836;SDS011;31548;51.420;-0.040;2022-12-07T04:40:26;9.93;;;4.40;;
45836;SDS011;31548;51.420;-0.040;2022-12-07T04:42:53;8.57;;;3.90;;
45836;SDS011;31548;51.420;-0.040;2022-12-07T04:45:20;17.23;;;5.93;;
45836;SDS011;31548;51.420;-0.040;2022-12-07T04:47:47;16.92;;;5.88;;
45836;SDS011;31548;51.420;-0.040;2022-12-07T04:50:15;16.08;;;6.55;;
45836;SDS011;31548;51.420;-0.040;2022-12-07T04:52:42;19.83;;;6.28;;
45836;SDS011;31548;51.420;-0.040;2022-12-07T04:55:09;10.70;;;5.45;;
45836;SDS011;31548;51.420;-0.040;2022-12-07T04:57:36;13.77;;;5.65;;
45836;SDS011;31548;51.420;-0.040;2022-12-07T05:00:04;12.32;;;4.75;;
45836;SDS011;31548;51.420;-0.040;2022-12-07T05:02:32;9.10;;;5.35;;
45836;SDS011;31548;51.420;-0.040;2022-12-07T05:04:59;8.63;;;4.20;;
45836;SDS011;31548;51.420;-0.040;2022-12-07T05:07:26;11.50;;;3.95;;
45836;SDS011;31548;51.420;-0.040;2022-12-07T05:09:53;14.77;;;4.65;;
45836;SDS011;31548;51.420;-0.040;2022-12-07T05:12:20;9.05;;;3.17;;
45836;SDS011;31548;51.420;-0.040;2022-12-07T05:14:48;13.23;;;5.15;;
45836;SDS011;31548;51.420;-0.040;2022-12-07T05:17:15;9.38;;;4.90;;
45836;SDS011;31548;51.420;-0.040;2022-12-07T05:19:43;9.93;;;4.28;;
45836;SDS011;31548;51.420;-0.040;2022-12-07T05:22:10;12.70;;;4.57;;
45836;SDS011;31548;51.420;-0.040;2022-12-07T05:24:37;12.38;;;4.43;;
45836;SDS011;31548;51.420;-0.040;2022-12-07T05:27:04;15.63;;;3.78;;
45836;SDS011;31548;51.420;-0.040;2022-12-07T05:29:31;11.43;;;2.97;;
45836;SDS011;31548;51.420;-0.040;2022-12-07T05:31:59;16.17;;;3.78;;
45836;SDS011;31548;51.420;-0.040;2022-12-07T05:34:26;7.63;;;3.22;;
45836;SDS011;31548;51.420;-0.040;2022-12-07T05:36:53;14.38;;;5.10;;
45836;SDS011;31548;51.420;-0.040;2022-12-07T05:39:21;10.77;;;4.15;;
45836;SDS011;31548;51.420;-0.040;2022-12-07T05:41:48;11.07;;;3.85;;
45836;SDS011;31548;51.420;-0.040;2022-12-07T05:44:33;8.60;;;3.78;;
45836;SDS011;31548;51.420;-0.040;2022-12-07T05:47:01;8.48;;;2.75;;
45836;SDS011;31548;51.420;-0.040;2022-12-07T05:49:28;12.68;;;4.70;;
45836;SDS011;31548;51.420;-0.040;2022-12-07T05:51:55;11.10;;;3.38;;
45836;SDS011;31548;51.420;-0.040;2022-12-07T05:54:22;17.13;;;4.15;;
45836;SDS011;31548;51.420;-0.040;2022-12-07T05:56:50;15.70;;;3.78;;
45836;SDS011;31548;51.420;-0.040;2022-12-07T05:59:17;10.52;;;4.20;;
45836;SDS011;31548;51.420;-0.040;2022-12-07T06:02:00;9.35;;;3.75;;
45836;SDS011;31548;51.420;-0.040;2022-12-07T06:04:36;9.45;;;2.90;;
45836;SDS011;31548;51.420;-0.040;2022-12-07T06:07:05;5.60;;;3.15;;
45836;SDS011;31548;51.420;-0.040;2022-12-07T06:09:33;7.93;;;2.47;;
45836;SDS011;31548;51.420;-0.040;2022-12-07T06:12:01;11.60;;;3.72;;
45836;SDS011;31548;51.420;-0.040;2022-12-07T06:14:47;11.50;;;2.80;;
45836;SDS011;31548;51.420;-0.040;2022-12-07T06:17:14;8.13;;;2.47;;
45836;SDS011;31548;51.420;-0.040;2022-12-07T06:19:42;9.07;;;3.15;;
45836;SDS011;31548;51.420;-0.040;2022-12-07T06:22:10;6.53;;;2.85;;
45836;SDS011;31548;51.420;-0.040;2022-12-07T06:24:38;9.18;;;2.08;;
45836;SDS011;31548;51.420;-0.040;2022-12-07T06:27:06;10.18;;;3.30;;
45836;SDS011;31548;51.420;-0.040;2022-12-07T06:29:33;6.05;;;2.53;;
45836;SDS011;31548;51.420;-0.040;2022-12-07T06:32:01;8.95;;;2.78;;
45836;SDS011;31548;51.420;-0.040;2022-12-07T06:34:28;6.70;;;2.88;;
45836;SDS011;31548;51.420;-0.040;2022-12-07T06:36:55;9.27;;;3.17;;
45836;SDS011;31548;51.420;-0.040;2022-12-07T06:39:25;12.32;;;2.15;;
45836;SDS011;31548;51.420;-0.040;2022-12-07T06:41:53;4.00;;;2.28;;
45836;SDS011;31548;51.420;-0.040;2022-12-07T06:44:21;13.95;;;2.22;;
45836;SDS011;31548;51.420;-0.040;2022-12-07T06:46:49;9.23;;;2.53;;
45836;SDS011;31548;51.420;-0.040;2022-12-07T06:49:21;5.93;;;2.15;;
45836;SDS011;31548;51.420;-0.040;2022-12-07T06:51:48;7.60;;;2.22;;
45836;SDS011;31548;51.420;-0.040;2022-12-07T06:54:16;6.50;;;2.85;;
45836;SDS011;31548;51.420;-0.040;2022-12-07T06:56:43;7.50;;;3.15;;
45836;SDS011;31548;51.420;-0.040;2022-12-07T06:59:11;8.85;;;2.25;;
45836;SDS011;31548;51.420;-0.040;2022-12-07T07:01:39;6.60;;;2.42;;
45836;SDS011;31548;51.420;-0.040;2022-12-07T07:04:06;7.60;;;2.50;;
45836;SDS011;31548;51.420;-0.040;2022-12-07T07:06:33;6.75;;;2.33;;
45836;SDS011;31548;51.420;-0.040;2022-12-07T07:09:01;7.55;;;1.98;;
45836;SDS011;31548;51.420;-0.040;2022-12-07T07:11:28;5.95;;;2.40;;
45836;SDS011;31548;51.420;-0.040;2022-12-07T07:13:55;5.68;;;1.98;;
45836;SDS011;31548;51.420;-0.040;2022-12-07T07:16:29;16.75;;;3.53;;
45836;SDS011;31548;51.420;-0.040;2022-12-07T07:18:57;6.65;;;2.45;;
45836;SDS011;31548;51.420;-0.040;2022-12-07T07:21:24;13.18;;;4.30;;
45836;SDS011;31548;51.420;-0.040;2022-12-07T07:23:52;10.50;;;3.20;;
45836;SDS011;31548;51.420;-0.040;2022-12-07T07:26:19;12.98;;;3.60;;
45836;SDS011;31548;51.420;-0.040;2022-12-07T07:28:49;6.28;;;2.22;;
45836;SDS011;31548;51.420;-0.040;2022-12-07T07:31:16;8.50;;;2.60;;
45836;SDS011;31548;51.420;-0.040;2022-12-07T07:33:44;6.50;;;2.30;;
45836;SDS011;31548;51.420;-0.040;2022-12-07T07:36:13;11.25;;;3.00;;
45836;SDS011;31548;51.420;-0.040;2022-12-07T07:38:40;5.80;;;2.17;;
45836;SDS011;31548;51.420;-0.040;2022-12-07T07:41:07;16.15;;;4.15;;
45836;SDS011;31548;51.420;-0.040;2022-12-07T07:43:34;7.97;;;2.70;;
45836;SDS011;31548;51.420;-0.040;2022-12-07T07:46:02;12.60;;;3.20;;
45836;SDS011;31548;51.420;-0.040;2022-12-07T07:48:29;11.98;;;4.40;;
45836;SDS011;31548;51.420;-0.040;2022-12-07T07:50:56;10.13;;;3.20;;
45836;SDS011;31548;51.420;-0.040;2022-12-07T07:53:23;9.95;;;3.88;;
45836;SDS011;31548;51.420;-0.040;2022-12-07T07:55:52;9.70;;;4.18;;
45836;SDS011;31548;51.420;-0.040;2022-12-07T07:58:20;17.67;;;4.82;;
45836;SDS011;31548;51.420;-0.040;2022-12-07T08:00:48;13.23;;;3.05;;
45836;SDS011;31548;51.420;-0.040;2022-12-07T08:03:15;5.07;;;3.20;;
45836;SDS011;31548;51.420;-0.040;2022-12-07T08:05:42;9.73;;;3.20;;
45836;SDS011;31548;51.420;-0.040;2022-12-07T08:08:09;5.05;;;2.08;;
45836;SDS011;31548;51.420;-0.040;2022-12-07T08:10:37;11.45;;;3.22;;
45836;SDS011;31548;51.420;-0.040;2022-12-07T08:13:04;12.95;;;3.00;;
45836;SDS011;31548;51.420;-0.040;2022-12-07T08:15:37;7.40;;;3.67;;
45836;SDS011;31548;51.420;-0.040;2022-12-07T08:18:06;8.48;;;4.25;;
45836;SDS011;31548;51.420;-0.040;2022-12-07T08:20:34;8.13;;;3.40;;
45836;SDS011;31548;51.420;-0.040;2022-12-07T08:23:02;6.05;;;2.25;;
45836;SDS011;31548;51.420;-0.040;2022-12-07T08:25:30;13.07;;;4.30;;
45836;SDS011;31548;51.420;-0.040;2022-12-07T08:27:58;7.25;;;3.25;;
45836;SDS011;31548;51.420;-0.040;2022-12-07T08:30:27;7.30;;;2.95;;
45836;SDS011;31548;51.420;-0.040;2022-12-07T08:32:56;9.50;;;3.00;;
45836;SDS011;31548;51.420;-0.040;2022-12-07T08:35:23;10.43;;;3.08;;
45836;SDS011;31548;51.420;-0.040;2022-12-07T08:37:51;8.93;;;3.78;;
45836;SDS011;31548;51.420;-0.040;2022-12-07T08:40:18;10.68;;;3.42;;
45836;SDS011;31548;51.420;-0.040;2022-12-07T08:42:50;15.32;;;6.00;;
45836;SDS011;31548;51.420;-0.040;2022-12-07T08:45:18;13.73;;;4.35;;
45836;SDS011;31548;51.420;-0.040;2022-12-07T08:47:57;17.38;;;5.60;;
45836;SDS011;31548;51.420;-0.040;2022-12-07T08:50:31;11.40;;;3.85;;
45836;SDS011;31548;51.420;-0.040;2022-12-07T08:52:59;8.88;;;3.15;;
45836;SDS011;31548;51.420;-0.040;2022-12-07T08:55:27;14.30;;;4.07;;
45836;SDS011;31548;51.420;-0.040;2022-12-07T08:57:56;10.90;;;3.53;;
45836;SDS011;31548;51.420;-0.040;2022-12-07T09:00:25;8.77;;;3.45;;
45836;SDS011;31548;51.420;-0.040;2022-12-07T09:02:53;11.00;;;3.42;;
45836;SDS011;31548;51.420;-0.040;2022-12-07T09:05:21;12.45;;;3.60;;
45836;SDS011;31548;51.420;-0.040;2022-12-07T09:07:50;12.93;;;4.47;;
45836;SDS011;31548;51.420;-0.040;2022-12-07T09:10:22;12.68;;;3.28;;
45836;SDS011;31548;51.420;-0.040;2022-12-07T09:12:50;8.68;;;3.40;;
45836;SDS011;31548;51.420;-0.040;2022-12-07T09:15:17;16.38;;;3.33;;
45836;SDS011;31548;51.420;-0.040;2022-12-07T09:17:44;11.25;;;3.53;;
45836;SDS011;31548;51.420;-0.040;2022-12-07T09:20:12;11.63;;;3.78;;
45836;SDS011;31548;51.420;-0.040;2022-12-07T09:22:39;7.80;;;2.42;;
45836;SDS011;31548;51.420;-0.040;2022-12-07T09:25:07;7.50;;;2.53;;
45836;SDS011;31548;51.420;-0.040;2022-12-07T09:27:34;12.25;;;2.90;;
45836;SDS011;31548;51.420;-0.040;2022-12-07T09:30:02;7.90;;;2.63;;
45836;SDS011;31548;51.420;-0.040;2022-12-07T09:32:31;17.50;;;4.18;;
45836;SDS011;31548;51.420;-0.040;2022-12-07T09:34:58;6.38;;;2.10;;
45836;SDS011;31548;51.420;-0.040;2022-12-07T09:37:25;7.88;;;2.75;;
45836;SDS011;31548;51.420;-0.040;2022-12-07T09:39:53;9.25;;;2.50;;
45836;SDS011;31548;51.420;-0.040;2022-12-07T09:42:28;13.82;;;4.32;;
45836;SDS011;31548;51.420;-0.040;2022-12-07T09:44:59;12.02;;;3.15;;
45836;SDS011;31548;51.420;-0.040;2022-12-07T09:47:27;16.25;;;2.78;;
45836;SDS011;31548;51.420;-0.040;2022-12-07T09:49:59;13.57;;;3.88;;
45836;SDS011;31548;51.420;-0.040;2022-12-07T09:52:31;10.98;;;3.78;;
45836;SDS011;31548;51.420;-0.040;2022-12-07T09:55:09;6.55;;;2.92;;
45836;SDS011;31548;51.420;-0.040;2022-12-07T09:57:42;9.05;;;2.35;;
45836;SDS011;31548;51.420;-0.040;2022-12-07T10:00:12;10.55;;;3.83;;
45836;SDS011;31548;51.420;-0.040;2022-12-07T10:02:47;15.32;;;4.97;;
45836;SDS011;31548;51.420;-0.040;2022-12-07T10:05:31;7.93;;;3.22;;
45836;SDS011;31548;51.420;-0.040;2022-12-07T10:08:12;10.18;;;3.22;;
45836;SDS011;31548;51.420;-0.040;2022-12-07T10:10:40;12.77;;;3.58;;
45836;SDS011;31548;51.420;-0.040;2022-12-07T10:13:11;12.88;;;3.38;;
45836;SDS011;31548;51.420;-0.040;2022-12-07T10:16:01;13.93;;;4.15;;
45836;SDS011;31548;51.420;-0.040;2022-12-07T10:18:41;10.52;;;2.10;;
45836;SDS011;31548;51.420;-0.040;2022-12-07T10:24:00;9.38;;;1.60;;
45836;SDS011;31548;51.420;-0.040;2022-12-07T10:26:36;5.63;;;1.90;;
45836;SDS011;31548;51.420;-0.040;2022-12-07T10:31:55;11.75;;;2.30;;
45836;SDS011;31548;51.420;-0.040;2022-12-07T10:34:29;10.88;;;2.95;;
45836;SDS011;31548;51.420;-0.040;2022-12-07T10:39:55;7.03;;;2.25;;
45836;SDS011;31548;51.420;-0.040;2022-12-07T10:42:24;5.53;;;2.22;;
45836;SDS011;31548;51.420;-0.040;2022-12-07T10:56:31;10.65;;;3.92;;
45836;SDS011;31548;51.420;-0.040;2022-12-07T10:59:13;18.38;;;5.18;;
45836;SDS011;31548;51.420;-0.040;2022-12-07T11:05:36;15.65;;;5.47;;
45836;SDS011;31548;51.420;-0.040;2022-12-07T11:07:58;16.25;;;6.15;;
45836;SDS011;31548;51.420;-0.040;2022-12-07T11:10:36;16.50;;;4.28;;
45836;SDS011;31548;51.420;-0.040;2022-12-07T11:13:25;13.80;;;5.00;;
45836;SDS011;31548;51.420;-0.040;2022-12-07T11:16:14;15.02;;;5.40;;
45836;SDS011;31548;51.420;-0.040;2022-12-07T11:18:47;14.82;;;4.47;;
45836;SDS011;31548;51.420;-0.040;2022-12-07T11:21:39;14.35;;;6.57;;
45836;SDS011;31548;51.420;-0.040;2022-12-07T11:24:15;9.45;;;4.43;;
45836;SDS011;31548;51.420;-0.040;2022-12-07T11:38:10;18.95;;;6.00;;
45836;SDS011;31548;51.420;-0.040;2022-12-07T11:40:46;21.00;;;6.10;;
45836;SDS011;31548;51.420;-0.040;2022-12-07T11:45:52;13.98;;;4.38;;
45836;SDS011;31548;51.420;-0.040;2022-12-07T11:48:37;12.85;;;5.32;;
45836;SDS011;31548;51.420;-0.040;2022-12-07T11:51:09;12.50;;;4.70;;
45836;SDS011;31548;51.420;-0.040;2022-12-07T11:53:43;12.75;;;5.53;;
45836;SDS011;31548;51.420;-0.040;2022-12-07T11:56:16;15.13;;;6.47;;
45836;SDS011;31548;51.420;-0.040;2022-12-07T11:59:02;15.48;;;5.70;;
45836;SDS011;31548;51.420;-0.040;2022-12-07T12:01:47;12.15;;;4.43;;
45836;SDS011;31548;51.420;-0.040;2022-12-07T12:06:59;10.40;;;3.83;;
45836;SDS011;31548;51.420;-0.040;2022-12-07T12:09:53;14.40;;;5.93;;
45836;SDS011;31548;51.420;-0.040;2022-12-07T12:15:44;18.70;;;5.55;;
45836;SDS011;31548;51.420;-0.040;2022-12-07T12:21:17;17.92;;;6.13;;
45836;SDS011;31548;51.420;-0.040;2022-12-07T12:23:50;19.80;;;5.10;;
45836;SDS011;31548;51.420;-0.040;2022-12-07T12:26:25;12.30;;;5.60;;
45836;SDS011;31548;51.420;-0.040;2022-12-07T12:29:00;10.27;;;3.80;;
45836;SDS011;31548;51.420;-0.040;2022-12-07T12:31:32;12.30;;;3.83;;
45836;SDS011;31548;51.420;-0.040;2022-12-07T12:34:04;12.68;;;4.03;;
45836;SDS011;31548;51.420;-0.040;2022-12-07T12:36:51;14.48;;;3.63;;
45836;SDS011;31548;51.420;-0.040;2022-12-07T12:39:19;15.60;;;3.63;;
45836;SDS011;31548;51.420;-0.040;2022-12-07T12:46:54;15.65;;;4.50;;
45836;SDS011;31548;51.420;-0.040;2022-12-07T12:54:59;14.00;;;4.82;;
45836;SDS011;31548;51.420;-0.040;2022-12-07T12:57:38;13.38;;;4.70;;
45836;SDS011;31548;51.420;-0.040;2022-12-07T13:00:21;12.95;;;5.07;;
45836;SDS011;31548;51.420;-0.040;2022-12-07T13:02:54;8.15;;;4.25;;
45836;SDS011;31548;51.420;-0.040;2022-12-07T13:05:23;10.65;;;3.40;;
45836;SDS011;31548;51.420;-0.040;2022-12-07T13:15:39;9.57;;;3.95;;
45836;SDS011;31548;51.420;-0.040;2022-12-07T13:18:23;13.82;;;3.35;;
45836;SDS011;31548;51.420;-0.040;2022-12-07T13:26:22;9.45;;;3.55;;
45836;SDS011;31548;51.420;-0.040;2022-12-07T13:29:06;16.70;;;4.25;;
45836;SDS011;31548;51.420;-0.040;2022-12-07T13:34:49;15.13;;;4.18;;
45836;SDS011;31548;51.420;-0.040;2022-12-07T13:39:49;16.20;;;5.32;;
45836;SDS011;31548;51.420;-0.040;2022-12-07T13:42:28;11.82;;;4.80;;
45836;SDS011;31548;51.420;-0.040;2022-12-07T13:44:57;14.10;;;5.53;;
45836;SDS011;31548;51.420;-0.040;2022-12-07T13:50:25;12.20;;;3.28;;
45836;SDS011;31548;51.420;-0.040;2022-12-07T13:52:56;9.65;;;3.45;;
45836;SDS011;31548;51.420;-0.040;2022-12-07T13:55:25;13.25;;;3.38;;
45836;SDS011;31548;51.420;-0.040;2022-12-07T13:57:54;15.77;;;4.10;;
45836;SDS011;31548;51.420;-0.040;2022-12-07T14:02:57;8.20;;;4.20;;
45836;SDS011;31548;51.420;-0.040;2022-12-07T14:08:02;12.93;;;3.78;;
45836;SDS011;31548;51.420;-0.040;2022-12-07T14:10:33;12.43;;;3.05;;
45836;SDS011;31548;51.420;-0.040;2022-12-07T14:13:02;11.30;;;2.35;;
45836;SDS011;31548;51.420;-0.040;2022-12-07T14:15:49;9.48;;;2.53;;
45836;SDS011;31548;51.420;-0.040;2022-12-07T14:18:24;9.30;;;2.83;;
45836;SDS011;31548;51.420;-0.040;2022-12-07T14:23:45;9.40;;;3.28;;
45836;SDS011;31548;51.420;-0.040;2022-12-07T14:26:28;9.23;;;2.47;;
45836;SDS011;31548;51.420;-0.040;2022-12-07T14:29:18;10.63;;;3.88;;
45836;SDS011;31548;51.420;-0.040;2022-12-07T14:31:52;6.68;;;2.53;;
45836;SDS011;31548;51.420;-0.040;2022-12-07T14:34:21;6.45;;;3.03;;
45836;SDS011;31548;51.420;-0.040;2022-12-07T14:36:50;5.80;;;2.55;;
45836;SDS011;31548;51.420;-0.040;2022-12-07T14:39:17;8.93;;;3.20;;
45836;SDS011;31548;51.420;-0.040;2022-12-07T14:41:44;8.18;;;2.20;;
45836;SDS011;31548;51.420;-0.040;2022-12-07T14:44:22;10.38;;;2.75;;
45836;SDS011;31548;51.420;-0.040;2022-12-07T14:46:53;10.40;;;3.03;;
45836;SDS011;31548;51.420;-0.040;2022-12-07T14:49:40;7.75;;;2.53;;
45836;SDS011;31548;51.420;-0.040;2022-12-07T14:52:11;9.55;;;2.33;;
45836;SDS011;31548;51.420;-0.040;2022-12-07T14:55:01;7.68;;;2.13;;
45836;SDS011;31548;51.420;-0.040;2022-12-07T14:57:29;6.93;;;1.70;;
45836;SDS011;31548;51.420;-0.040;2022-12-07T14:59:56;9.65;;;2.10;;
45836;SDS011;31548;51.420;-0.040;2022-12-07T15:02:24;8.48;;;2.25;;
45836;SDS011;31548;51.420;-0.040;2022-12-07T15:04:51;9.35;;;3.17;;
45836;SDS011;31548;51.420;-0.040;2022-12-07T15:07:19;9.43;;;3.72;;
45836;SDS011;31548;51.420;-0.040;2022-12-07T15:09:47;10.60;;;3.38;;
45836;SDS011;31548;51.420;-0.040;2022-12-07T15:12:15;9.52;;;2.72;;
45836;SDS011;31548;51.420;-0.040;2022-12-07T15:14:42;8.75;;;2.25;;
45836;SDS011;31548;51.420;-0.040;2022-12-07T15:17:10;8.32;;;3.70;;
45836;SDS011;31548;51.420;-0.040;2022-12-07T15:19:55;4.93;;;1.90;;
45836;SDS011;31548;51.420;-0.040;2022-12-07T15:22:22;4.72;;;1.52;;
45836;SDS011;31548;51.420;-0.040;2022-12-07T15:24:49;6.82;;;2.22;;
45836;SDS011;31548;51.420;-0.040;2022-12-07T15:27:17;8.15;;;2.42;;
45836;SDS011;31548;51.420;-0.040;2022-12-07T15:29:44;7.72;;;2.35;;
45836;SDS011;31548;51.420;-0.040;2022-12-07T15:32:12;10.10;;;2.70;;
45836;SDS011;31548;51.420;-0.040;2022-12-07T15:34:39;7.95;;;2.17;;
45836;SDS011;31548;51.420;-0.040;2022-12-07T15:37:07;6.75;;;2.55;;
45836;SDS011;31548;51.420;-0.040;2022-12-07T15:39:35;10.18;;;2.45;;
45836;SDS011;31548;51.420;-0.040;2022-12-07T15:42:03;5.75;;;2.40;;
45836;SDS011;31548;51.420;-0.040;2022-12-07T15:44:31;8.13;;;2.95;;
45836;SDS011;31548;51.420;-0.040;2022-12-07T15:47:16;12.07;;;2.63;;
45836;SDS011;31548;51.420;-0.040;2022-12-07T15:49:43;9.25;;;3.58;;
45836;SDS011;31548;51.420;-0.040;2022-12-07T15:52:11;10.77;;;2.40;;
45836;SDS011;31548;51.420;-0.040;2022-12-07T15:54:38;5.75;;;2.35;;
45836;SDS011;31548;51.420;-0.040;2022-12-07T15:57:06;5.63;;;2.03;;
45836;SDS011;31548;51.420;-0.040;2022-12-07T15:59:33;6.25;;;1.85;;
45836;SDS011;31548;51.420;-0.040;2022-12-07T16:02:00;8.52;;;2.45;;
45836;SDS011;31548;51.420;-0.040;2022-12-07T16:04:28;8.45;;;3.85;;
45836;SDS011;31548;51.420;-0.040;2022-12-07T16:06:56;18.23;;;4.20;;
45836;SDS011;31548;51.420;-0.040;2022-12-07T16:09:23;10.75;;;3.38;;
45836;SDS011;31548;51.420;-0.040;2022-12-07T16:11:51;9.20;;;3.00;;
45836;SDS011;31548;51.420;-0.040;2022-12-07T16:14:18;6.18;;;3.08;;
45836;SDS011;31548;51.420;-0.040;2022-12-07T16:16:46;10.52;;;3.03;;
45836;SDS011;31548;51.420;-0.040;2022-12-07T16:19:14;11.65;;;2.47;;
45836;SDS011;31548;51.420;-0.040;2022-12-07T16:21:42;5.85;;;2.55;;
45836;SDS011;31548;51.420;-0.040;2022-12-07T16:24:09;8.57;;;2.40;;
45836;SDS011;31548;51.420;-0.040;2022-12-07T16:26:42;4.32;;;2.30;;
45836;SDS011;31548;51.420;-0.040;2022-12-07T16:29:16;6.97;;;2.72;;
45836;SDS011;31548;51.420;-0.040;2022-12-07T16:31:45;6.60;;;2.35;;
45836;SDS011;31548;51.420;-0.040;2022-12-07T16:34:12;11.00;;;1.98;;
45836;SDS011;31548;51.420;-0.040;2022-12-07T16:36:40;4.82;;;1.90;;
45836;SDS011;31548;51.420;-0.040;2022-12-07T16:39:27;4.93;;;1.98;;
45836;SDS011;31548;51.420;-0.040;2022-12-07T16:41:54;5.47;;;1.90;;
45836;SDS011;31548;51.420;-0.040;2022-12-07T16:44:21;6.57;;;2.05;;
45836;SDS011;31548;51.420;-0.040;2022-12-07T16:46:48;11.57;;;4.20;;
45836;SDS011;31548;51.420;-0.040;2022-12-07T16:49:16;10.25;;;2.90;;
45836;SDS011;31548;51.420;-0.040;2022-12-07T16:51:45;10.43;;;3.10;;
45836;SDS011;31548;51.420;-0.040;2022-12-07T16:54:13;6.75;;;2.78;;
45836;SDS011;31548;51.420;-0.040;2022-12-07T16:56:41;10.85;;;3.60;;
45836;SDS011;31548;51.420;-0.040;2022-12-07T16:59:08;13.57;;;3.42;;
45836;SDS011;31548;51.420;-0.040;2022-12-07T17:01:35;14.73;;;4.55;;